Time;durP1;ratioP1;P1;durP2;ratioP2;P2;SDS_P1;SDS_P2;PMS_P1;PMS_P2;Temp;Humidity;BMP_temperature;BMP_pressure;BME280_temperature;BME280_humidity;BME280_pressure;Samples;Min_cycle;Max_cycle;Signal;HPM_P1;HPM_P2
2022/07/29 00:01:03;;;;;;;7.93;4.60;;;15.60;99.90;;;;;;4959137;28;20198;-78
2022/07/29 00:03:30;;;;;;;8.23;4.30;;;15.50;99.90;;;;;;4959010;28;20194;-79
2022/07/29 00:05:57;;;;;;;8.07;4.47;;;15.50;99.90;;;;;;4976455;28;20702;-79
2022/07/29 00:08:26;;;;;;;7.93;4.80;;;15.40;99.90;;;;;;4959119;28;20631;-78
2022/07/29 00:10:53;;;;;;;10.63;4.63;;;15.50;99.90;;;;;;4959033;28;20634;-78
2022/07/29 00:13:20;;;;;;;7.93;4.30;;;15.40;99.90;;;;;;4975741;28;20213;-78
2022/07/29 00:15:59;;;;;;;11.17;4.87;;;15.40;99.90;;;;;;4958630;28;20329;-79
2022/07/29 00:18:31;;;;;;;6.97;4.23;;;15.30;99.90;;;;;;4958859;28;20197;-80
2022/07/29 00:20:58;;;;;;;10.20;4.73;;;15.30;99.90;;;;;;4976110;28;20686;-79
2022/07/29 00:23:25;;;;;;;8.43;4.90;;;15.30;99.90;;;;;;4958550;28;20292;-78
2022/07/29 00:25:51;;;;;;;6.33;4.20;;;15.30;99.90;;;;;;4958393;28;20228;-78
2022/07/29 00:28:18;;;;;;;6.83;4.27;;;15.30;99.90;;;;;;4958397;28;20248;-79
2022/07/29 00:30:45;;;;;;;9.53;4.30;;;15.30;99.90;;;;;;4975863;28;20754;-79
2022/07/29 00:33:12;;;;;;;8.93;4.80;;;15.20;99.90;;;;;;4958625;28;20277;-78
2022/07/29 00:35:45;;;;;;;9.20;4.43;;;15.20;99.90;;;;;;4958407;28;20205;-79
2022/07/29 00:38:14;;;;;;;10.63;4.60;;;15.20;99.90;;;;;;4958342;28;20292;-79
2022/07/29 00:40:42;;;;;;;7.33;4.57;;;15.10;99.90;;;;;;4958380;28;20201;-80
2022/07/29 00:43:11;;;;;;;7.63;4.00;;;15.00;99.90;;;;;;4975422;28;20221;-80
2022/07/29 00:45:38;;;;;;;7.37;4.33;;;15.10;99.90;;;;;;4975792;28;20642;-80
2022/07/29 00:48:06;;;;;;;8.30;4.33;;;15.10;99.90;;;;;;4958008;28;20293;-80
2022/07/29 00:50:33;;;;;;;8.37;4.13;;;15.10;99.90;;;;;;4957852;28;20296;-79
2022/07/29 00:53:00;;;;;;;9.13;4.30;;;15.10;99.90;;;;;;4975274;28;20550;-79
2022/07/29 00:55:28;;;;;;;7.23;3.93;;;15.10;99.90;;;;;;4990182;28;20564;-75
2022/07/29 00:57:57;;;;;;;6.03;3.93;;;15.10;99.90;;;;;;4957850;28;20198;-79
2022/07/29 01:00:27;;;;;;;9.83;4.50;;;15.10;99.90;;;;;;4990619;28;20209;-79
2022/07/29 01:02:54;;;;;;;8.17;4.73;;;15.10;99.90;;;;;;4957682;28;20252;-79
2022/07/29 01:05:23;;;;;;;7.63;4.23;;;15.00;99.90;;;;;;4957642;28;20225;-80
2022/07/29 01:08:12;;;;;;;7.97;3.90;;;15.00;99.90;;;;;;4957691;28;20212;-80
2022/07/29 01:10:41;;;;;;;6.50;3.83;;;15.00;99.90;;;;;;4957628;28;20227;-80
2022/07/29 01:13:09;;;;;;;9.10;4.20;;;15.00;99.90;;;;;;4974930;28;20353;-80
2022/07/29 01:16:03;;;;;;;9.50;4.60;;;15.00;99.90;;;;;;4957482;28;20241;-78
2022/07/29 01:18:34;;;;;;;8.53;3.67;;;15.00;99.90;;;;;;4899378;29;20203;-79
2022/07/29 01:21:06;;;;;;;7.50;4.20;;;14.90;99.90;;;;;;4899285;29;20227;-75
2022/07/29 01:23:36;;;;;;;7.90;3.80;;;14.90;99.90;;;;;;4915113;29;20294;-79
2022/07/29 01:26:18;;;;;;;6.93;3.53;;;14.80;99.90;;;;;;4899321;29;20267;-79
2022/07/29 01:29:27;;;;;;;8.13;3.33;;;14.80;99.90;;;;;;4899454;29;20306;-79
2022/07/29 01:32:11;;;;;;;5.80;3.50;;;14.80;99.90;;;;;;4843475;29;20213;-79
2022/07/29 01:35:12;;;;;;;8.23;3.70;;;14.80;99.90;;;;;;4843415;29;20205;-79
2022/07/29 01:37:51;;;;;;;8.20;4.00;;;14.80;99.90;;;;;;4858583;29;20778;-80
2022/07/29 01:40:21;;;;;;;7.77;3.47;;;14.80;99.90;;;;;;4843259;29;20233;-78
2022/07/29 01:43:01;;;;;;;8.73;3.77;;;14.80;99.90;;;;;;4843185;29;20734;-79
2022/07/29 01:45:44;;;;;;;5.83;3.03;;;14.80;99.90;;;;;;4843419;29;20320;-77
2022/07/29 01:48:33;;;;;;;7.13;3.27;;;14.80;99.90;;;;;;4843373;29;20300;-80
2022/07/29 01:51:03;;;;;;;6.50;3.50;;;14.70;99.90;;;;;;4858782;29;20221;-79
2022/07/29 01:53:45;;;;;;;7.10;3.50;;;14.70;99.90;;;;;;4843354;29;20236;-80
2022/07/29 01:56:14;;;;;;;4.67;3.20;;;14.70;99.90;;;;;;4887412;29;20351;-79
2022/07/29 01:58:44;;;;;;;6.90;3.07;;;14.70;99.90;;;;;;4914957;29;20199;-78
2022/07/29 02:01:13;;;;;;;6.90;3.40;;;14.70;99.90;;;;;;4930557;29;20306;-79
2022/07/29 02:03:47;;;;;;;4.43;2.90;;;14.60;99.90;;;;;;4930854;29;20206;-79
2022/07/29 02:06:18;;;;;;;5.70;3.10;;;14.60;99.90;;;;;;4899195;29;20306;-80
2022/07/29 02:08:46;;;;;;;6.83;3.33;;;14.60;99.90;;;;;;4946841;28;20231;-79
2022/07/29 02:11:14;;;;;;;5.73;3.13;;;14.70;99.90;;;;;;4956783;28;20204;-75
2022/07/29 02:13:42;;;;;;;5.60;3.20;;;14.70;99.90;;;;;;4956844;28;20216;-80
2022/07/29 02:16:10;;;;;;;7.40;3.27;;;14.60;99.90;;;;;;4956766;28;20332;-79
2022/07/29 02:18:39;;;;;;;5.93;3.30;;;14.70;99.90;;;;;;4956844;28;20198;-79
2022/07/29 02:21:07;;;;;;;6.17;3.30;;;14.70;99.90;;;;;;4957049;28;20221;-80
2022/07/29 02:23:43;;;;;;;6.80;3.13;;;14.70;99.90;;;;;;4956657;28;20224;-78
2022/07/29 02:26:19;;;;;;;5.77;3.00;;;14.60;99.90;;;;;;4989406;28;20555;-78
2022/07/29 02:28:48;;;;;;;5.27;2.80;;;14.70;99.90;;;;;;4974111;28;20703;-78
2022/07/29 02:31:16;;;;;;;7.17;2.90;;;14.60;99.90;;;;;;4957361;28;20576;-77
2022/07/29 02:33:45;;;;;;;7.23;3.50;;;14.60;99.90;;;;;;4956695;28;20206;-79
2022/07/29 02:36:13;;;;;;;6.40;2.90;;;14.60;99.90;;;;;;4989072;28;20201;-78
2022/07/29 02:38:51;;;;;;;4.63;2.90;;;14.60;99.90;;;;;;4957046;28;20205;-79
2022/07/29 02:41:35;;;;;;;4.10;2.80;;;14.60;99.90;;;;;;4956892;28;20202;-78
2022/07/29 02:44:06;;;;;;;6.63;3.10;;;14.60;99.90;;;;;;4956477;28;20210;-77
2022/07/29 02:46:36;;;;;;;6.67;2.87;;;14.60;99.90;;;;;;4956517;28;20217;-79
2022/07/29 02:49:13;;;;;;;5.97;2.80;;;14.50;99.90;;;;;;4956335;28;20621;-78
2022/07/29 02:51:49;;;;;;;5.23;2.80;;;14.50;99.90;;;;;;4975101;28;20204;-74
2022/07/29 02:54:43;;;;;;;5.83;2.53;;;14.50;99.90;;;;;;4977315;28;20616;-78
2022/07/29 02:57:20;;;;;;;6.27;2.80;;;14.40;99.90;;;;;;4917765;29;20687;-79
2022/07/29 02:59:50;;;;;;;6.33;2.80;;;14.50;99.90;;;;;;4902025;29;20203;-78
2022/07/29 03:02:17;;;;;;;7.33;2.70;;;14.40;99.90;;;;;;4901818;29;20660;-76
2022/07/29 03:04:46;;;;;;;3.90;2.70;;;14.40;99.90;;;;;;4901856;29;20208;-78
2022/07/29 03:07:17;;;;;;;5.07;2.93;;;14.30;99.90;;;;;;4902073;29;20227;-80
2022/07/29 03:09:45;;;;;;;4.97;3.07;;;14.40;99.90;;;;;;4901782;29;20203;-79
2022/07/29 03:12:14;;;;;;;4.67;2.70;;;14.40;99.90;;;;;;4901578;29;20298;-80
2022/07/29 03:14:43;;;;;;;5.83;2.80;;;14.40;99.90;;;;;;4901869;29;20204;-79
2022/07/29 03:17:10;;;;;;;5.80;2.70;;;14.40;99.90;;;;;;4917432;29;20644;-79
2022/07/29 03:19:38;;;;;;;13.47;3.03;;;14.40;99.90;;;;;;4885904;29;20314;-79
2022/07/29 03:22:06;;;;;;;7.23;2.90;;;14.40;99.90;;;;;;4917244;29;20219;-79
2022/07/29 03:24:35;;;;;;;6.80;2.70;;;14.40;99.90;;;;;;4901520;29;20232;-78
2022/07/29 03:27:04;;;;;;;4.47;2.40;;;14.40;99.90;;;;;;4901898;29;20735;-78
2022/07/29 03:29:32;;;;;;;5.10;2.70;;;14.40;99.90;;;;;;4901551;29;20273;-79
2022/07/29 03:32:05;;;;;;;5.73;2.30;;;14.40;99.90;;;;;;4901436;29;20216;-78
2022/07/29 03:34:35;;;;;;;5.13;2.63;;;14.40;99.90;;;;;;4936684;28;20210;-79
2022/07/29 03:37:02;;;;;;;7.30;2.90;;;14.40;99.90;;;;;;4991848;28;20211;-79
2022/07/29 03:39:33;;;;;;;5.87;2.40;;;14.50;99.90;;;;;;4976478;28;20193;-79
2022/07/29 03:42:01;;;;;;;4.63;2.63;;;14.50;99.90;;;;;;4991483;28;20204;-80
2022/07/29 03:44:29;;;;;;;4.13;2.47;;;14.50;99.90;;;;;;4959204;28;20200;-80
2022/07/29 03:46:58;;;;;;;4.10;2.47;;;14.60;99.90;;;;;;4976797;28;20253;-80
2022/07/29 03:49:27;;;;;;;5.03;2.53;;;14.60;99.90;;;;;;4976541;28;20627;-80
2022/07/29 03:51:54;;;;;;;6.47;2.60;;;14.60;99.90;;;;;;4958925;28;20293;-80
2022/07/29 03:54:22;;;;;;;5.97;2.70;;;14.70;99.90;;;;;;4976639;28;20204;-79
2022/07/29 03:56:52;;;;;;;3.97;2.20;;;14.70;99.90;;;;;;4991230;28;20243;-78
2022/07/29 03:59:21;;;;;;;4.90;2.40;;;14.80;99.90;;;;;;4959465;28;20209;-79
2022/07/29 04:01:48;;;;;;;3.57;2.60;;;14.80;99.90;;;;;;4958678;28;20205;-78
2022/07/29 04:04:16;;;;;;;4.83;2.63;;;14.80;99.90;;;;;;4976345;28;20202;-79
2022/07/29 04:06:46;;;;;;;5.97;2.43;;;14.90;99.90;;;;;;4958764;28;20312;-77
2022/07/29 04:09:15;;;;;;;7.23;3.13;;;14.90;99.90;;;;;;4959077;28;20669;-78
2022/07/29 04:11:43;;;;;;;5.30;2.07;;;14.90;99.90;;;;;;4958625;28;20247;-78
2022/07/29 04:14:30;;;;;;;5.93;2.53;;;15.00;99.90;;;;;;4958912;28;20550;-79
2022/07/29 04:16:58;;;;;;;5.77;2.53;;;15.10;99.90;;;;;;4958510;28;20320;-80
2022/07/29 04:19:24;;;;;;;3.50;2.30;;;15.10;99.90;;;;;;4958357;28;20232;-76
2022/07/29 04:21:52;;;;;;;3.13;2.20;;;15.10;99.90;;;;;;4958699;28;20682;-80
2022/07/29 04:24:19;;;;;;;4.63;2.27;;;15.20;99.90;;;;;;4990967;28;20205;-79
2022/07/29 04:26:46;;;;;;;4.73;2.30;;;15.20;99.90;;;;;;4975836;28;20220;-78
2022/07/29 04:29:14;;;;;;;5.43;2.50;;;15.20;99.90;;;;;;4958368;28;20233;-75
2022/07/29 04:31:41;;;;;;;3.53;2.30;;;15.30;99.90;;;;;;4990450;28;20205;-79
2022/07/29 04:34:09;;;;;;;5.73;2.37;;;15.30;99.90;;;;;;4958251;28;20204;-78
2022/07/29 04:36:36;;;;;;;3.80;2.13;;;15.30;99.90;;;;;;4990430;28;20190;-77
2022/07/29 04:39:03;;;;;;;3.73;2.20;;;15.40;99.90;;;;;;4958205;28;20292;-79
2022/07/29 04:41:30;;;;;;;5.33;1.93;;;15.50;99.90;;;;;;4957936;28;20308;-79
2022/07/29 04:44:04;;;;;;;5.53;2.20;;;15.60;99.90;;;;;;4958000;28;20714;-75
2022/07/29 04:46:33;;;;;;;7.63;2.30;;;15.70;99.90;;;;;;4990071;28;20560;-77
2022/07/29 04:49:03;;;;;;;3.57;2.20;;;15.70;99.90;;;;;;4957793;28;20557;-79
2022/07/29 04:51:30;;;;;;;4.27;2.20;;;15.70;99.90;;;;;;4957838;28;20201;-75
2022/07/29 04:53:57;;;;;;;3.30;2.00;;;15.70;99.90;;;;;;4990105;28;20197;-78
2022/07/29 04:56:24;;;;;;;6.77;2.80;;;15.80;99.90;;;;;;4957900;28;20325;-77
2022/07/29 04:58:52;;;;;;;5.93;2.23;;;15.90;99.90;;;;;;4958028;28;20293;-78
2022/07/29 05:01:19;;;;;;;2.77;2.20;;;15.90;99.90;;;;;;4957559;28;20209;-77
2022/07/29 05:03:46;;;;;;;3.90;2.37;;;16.00;99.90;;;;;;4974918;28;20658;-78
2022/07/29 05:06:13;;;;;;;4.97;2.10;;;15.90;99.90;;;;;;4957521;28;20230;-77
2022/07/29 05:08:40;;;;;;;3.37;2.30;;;15.90;99.90;;;;;;4957700;28;20297;-76
2022/07/29 05:11:07;;;;;;;4.60;2.13;;;15.90;99.90;;;;;;4974869;28;20582;-78
2022/07/29 05:13:39;;;;;;;4.50;2.00;;;16.10;99.90;;;;;;4957321;28;20197;-79
2022/07/29 05:16:12;;;;;;;4.87;2.10;;;16.20;99.90;;;;;;4974647;28;20238;-79
2022/07/29 05:18:40;;;;;;;8.13;2.03;;;16.40;99.90;;;;;;4989742;28;20197;-79
2022/07/29 05:21:07;;;;;;;4.53;1.93;;;16.50;99.90;;;;;;4989914;28;20236;-77
2022/07/29 05:23:34;;;;;;;5.27;2.10;;;16.60;99.90;;;;;;4957473;28;20738;-79
2022/07/29 05:26:01;;;;;;;6.43;1.73;;;16.50;99.90;;;;;;4957456;28;20673;-80
2022/07/29 05:28:28;;;;;;;5.90;1.90;;;16.60;99.90;;;;;;4974815;28;20277;-77
2022/07/29 05:30:55;;;;;;;5.27;1.97;;;16.60;99.90;;;;;;4974696;28;20308;-78
2022/07/29 05:33:23;;;;;;;8.07;1.90;;;16.60;99.90;;;;;;4957367;28;20646;-78
2022/07/29 05:36:05;;;;;;;5.20;1.73;;;16.70;99.90;;;;;;4974604;28;20623;-83
2022/07/29 05:38:32;;;;;;;7.80;2.27;;;16.80;99.90;;;;;;4957112;28;20567;-79
2022/07/29 05:41:00;;;;;;;2.87;1.63;;;16.80;99.90;;;;;;4957057;28;20304;-79
2022/07/29 05:43:29;;;;;;;3.70;1.77;;;16.80;99.90;;;;;;4989334;28;20202;-78
2022/07/29 05:45:57;;;;;;;3.83;1.77;;;16.90;99.90;;;;;;4957025;28;20726;-78
2022/07/29 05:48:24;;;;;;;3.87;1.60;;;17.10;99.90;;;;;;4957260;28;20194;-75
2022/07/29 05:50:51;;;;;;;3.67;1.60;;;17.20;99.90;;;;;;4956727;28;20190;-76
2022/07/29 05:53:18;;;;;;;5.67;1.70;;;17.20;99.90;;;;;;4956977;28;20647;-79
2022/07/29 05:55:48;;;;;;;3.30;1.30;;;17.20;99.90;;;;;;4957121;28;20205;-79
2022/07/29 05:58:15;;;;;;;4.33;1.30;;;17.30;99.90;;;;;;4989462;28;20304;-80
2022/07/29 06:00:42;;;;;;;2.77;1.43;;;17.40;99.90;;;;;;4957377;28;20288;-75
2022/07/29 06:03:09;;;;;;;2.97;1.20;;;17.40;99.90;;;;;;4989265;28;20534;-77
2022/07/29 06:05:36;;;;;;;2.90;1.23;;;17.50;99.90;;;;;;4957137;28;20647;-78
2022/07/29 06:08:05;;;;;;;5.07;1.40;;;17.70;99.90;;;;;;4957099;28;20225;-77
2022/07/29 06:10:32;;;;;;;5.40;1.20;;;17.70;99.90;;;;;;4988999;28;20284;-79
2022/07/29 06:12:59;;;;;;;4.03;1.20;;;17.70;99.90;;;;;;4989231;28;20213;-78
2022/07/29 06:15:26;;;;;;;4.33;1.87;;;17.80;99.90;;;;;;4956771;28;20221;-79
2022/07/29 06:17:53;;;;;;;2.20;1.50;;;17.90;99.90;;;;;;4957042;28;20211;-79
2022/07/29 06:20:31;;;;;;;1.90;1.13;;;18.00;99.90;;;;;;4956484;28;20217;-77
2022/07/29 06:22:59;;;;;;;1.50;1.07;;;18.20;99.90;;;;;;4956625;28;20674;-79
2022/07/29 06:25:29;;;;;;;2.90;1.10;;;18.20;99.90;;;;;;4974601;28;20221;-78
2022/07/29 06:27:57;;;;;;;3.83;1.13;;;18.20;99.90;;;;;;4977938;28;20206;-78
2022/07/29 06:30:24;;;;;;;2.57;1.10;;;18.20;99.90;;;;;;4976499;28;20288;-77
2022/07/29 06:32:51;;;;;;;4.83;1.30;;;18.40;99.90;;;;;;4960270;28;20197;-77
2022/07/29 06:35:18;;;;;;;4.37;1.10;;;18.40;99.90;;;;;;4960407;28;20190;-76
2022/07/29 06:38:05;;;;;;;4.63;1.10;;;18.50;99.90;;;;;;4959829;28;20203;-77
2022/07/29 06:41:02;;;;;;;2.90;1.10;;;18.70;99.90;;;;;;4960007;28;20200;-77
2022/07/29 06:43:33;;;;;;;3.80;0.97;;;18.90;99.90;;;;;;4976517;28;20194;-78
2022/07/29 06:46:06;;;;;;;2.47;0.90;;;19.00;99.90;;;;;;4960029;28;20206;-77
2022/07/29 06:48:34;;;;;;;3.97;1.20;;;19.10;99.90;;;;;;4992267;28;20198;-79
2022/07/29 06:51:02;;;;;;;1.53;0.90;;;19.30;99.90;;;;;;4992489;28;20201;-79
2022/07/29 06:53:29;;;;;;;2.23;0.90;;;19.30;99.90;;;;;;4992340;28;20292;-79
2022/07/29 06:55:58;;;;;;;2.83;1.00;;;19.40;99.90;;;;;;4960427;28;20196;-76
2022/07/29 06:58:28;;;;;;;3.83;1.20;;;19.50;99.90;;;;;;4959848;28;20581;-73
2022/07/29 07:00:57;;;;;;;3.37;1.13;;;19.50;99.90;;;;;;4977247;28;20381;-78
2022/07/29 07:03:25;;;;;;;4.73;1.13;;;19.50;99.90;;;;;;4960175;28;20248;-81
2022/07/29 07:05:53;;;;;;;3.50;1.10;;;19.70;99.90;;;;;;4966513;28;20315;-78
2022/07/29 07:08:23;;;;;;;4.70;1.10;;;19.80;99.90;;;;;;4978631;28;20716;-77
2022/07/29 07:10:53;;;;;;;3.90;1.13;;;20.00;99.90;;;;;;4978800;28;20264;-74
2022/07/29 07:13:19;;;;;;;3.13;1.20;;;20.10;99.90;;;;;;4978756;28;20211;-80
2022/07/29 07:15:50;;;;;;;3.50;1.30;;;20.20;99.90;;;;;;4978233;28;20272;-79
2022/07/29 07:18:18;;;;;;;3.77;1.00;;;20.10;99.90;;;;;;4960617;28;20211;-81
2022/07/29 07:20:45;;;;;;;2.83;1.10;;;20.20;99.90;;;;;;4958988;28;20337;-80
2022/07/29 07:23:12;;;;;;;3.07;1.20;;;20.30;99.90;;;;;;4958840;28;20636;-76
2022/07/29 07:25:39;;;;;;;1.50;0.80;;;20.30;99.90;;;;;;4976849;28;20292;-78
2022/07/29 07:28:06;;;;;;;2.07;0.93;;;20.40;99.90;;;;;;4975163;28;20221;-81
2022/07/29 07:30:33;;;;;;;6.43;1.90;;;20.50;99.90;;;;;;4958942;28;20202;-77
2022/07/29 07:32:59;;;;;;;4.07;1.20;;;20.70;99.90;;;;;;4975041;28;20197;-78
2022/07/29 07:35:27;;;;;;;3.33;1.27;;;20.70;99.90;;;;;;4978167;28;20288;-79
2022/07/29 07:37:55;;;;;;;1.80;1.00;;;20.80;99.90;;;;;;4977537;28;20662;-80
2022/07/29 07:40:24;;;;;;;3.40;1.20;;;21.00;99.90;;;;;;4979126;28;20647;-83
2022/07/29 07:42:51;;;;;;;2.50;1.10;;;21.10;99.90;;;;;;4978329;28;20211;-80
2022/07/29 07:45:18;;;;;;;4.30;1.07;;;21.20;99.90;;;;;;4978212;28;20268;-81
2022/07/29 07:47:45;;;;;;;3.53;1.10;;;21.30;99.90;;;;;;4995756;28;20586;-80
2022/07/29 07:50:12;;;;;;;3.90;0.97;;;21.40;99.90;;;;;;4962488;28;20204;-77
2022/07/29 07:52:50;;;;;;;3.93;1.10;;;21.50;99.90;;;;;;4978077;28;20340;-80
2022/07/29 07:55:17;;;;;;;4.13;1.17;;;21.40;99.90;;;;;;4977943;28;20236;-79
2022/07/29 07:57:44;;;;;;;2.40;1.10;;;21.60;99.90;;;;;;4978176;28;20207;-79
2022/07/29 08:00:13;;;;;;;3.50;1.10;;;21.70;99.90;;;;;;4978228;28;20662;-78
2022/07/29 08:02:42;;;;;;;2.70;1.07;;;21.70;99.90;;;;;;4978237;28;20566;-74
2022/07/29 08:05:11;;;;;;;4.67;1.40;;;21.90;99.90;;;;;;4977982;28;20200;-78
2022/07/29 08:07:39;;;;;;;4.07;1.10;;;22.00;99.90;;;;;;4977914;28;20349;-79
2022/07/29 08:10:06;;;;;;;2.80;1.20;;;22.10;99.90;;;;;;4995270;28;20557;-77
2022/07/29 08:12:33;;;;;;;1.67;1.17;;;22.00;99.90;;;;;;4977547;28;20209;-79
2022/07/29 08:15:00;;;;;;;4.93;1.17;;;22.10;99.90;;;;;;4977833;28;20224;-78
2022/07/29 08:17:27;;;;;;;5.27;1.20;;;22.10;99.90;;;;;;4977735;28;20319;-77
2022/07/29 08:19:54;;;;;;;3.00;1.10;;;22.10;99.90;;;;;;4978025;28;20225;-81
2022/07/29 08:22:21;;;;;;;3.58;1.50;;;22.30;99.90;;;;;;4977804;28;20296;-84
2022/07/29 08:24:55;;;;;;;3.63;1.05;;;23.20;99.90;;;;;;4977749;28;20555;-79
2022/07/29 08:27:23;;;;;;;4.85;1.30;;;24.40;99.90;;;;;;4977611;28;20723;-82
2022/07/29 08:30:10;;;;;;;2.72;1.10;;;25.40;99.90;;;;;;4977483;28;20197;-80
2022/07/29 08:32:37;;;;;;;2.72;1.10;;;25.90;99.90;;;;;;4977579;28;20251;-82
2022/07/29 08:35:22;;;;;;;2.72;1.20;;;25.70;99.90;;;;;;4977621;28;20529;-83
2022/07/29 08:37:50;;;;;;;1.88;1.10;;;25.90;99.90;;;;;;4977430;28;20601;-81
2022/07/29 08:40:18;;;;;;;6.70;1.45;;;26.10;99.90;;;;;;4994862;28;20181;-83
2022/07/29 08:42:56;;;;;;;4.03;1.25;;;25.80;99.90;;;;;;4976120;28;20207;-81
2022/07/29 08:45:24;;;;;;;5.03;1.27;;;26.40;99.90;;;;;;4977815;28;20204;-82
2022/07/29 08:50:37;;;;;;;4.03;1.40;;;27.50;99.90;;;;;;5033954;23;20232;-81
2022/07/29 08:53:07;;;;;;;3.53;1.02;;;27.20;99.90;;;;;;4980081;28;20208;-82
2022/07/29 08:55:34;;;;;;;2.50;1.08;;;26.80;99.90;;;;;;4995882;28;20298;-82
2022/07/29 08:58:01;;;;;;;2.92;1.02;;;27.20;99.90;;;;;;4996809;28;20239;-88
2022/07/29 09:00:29;;;;;;;2.85;1.13;;;27.20;99.90;;;;;;4996952;28;20200;-84
2022/07/29 09:02:58;;;;;;;3.08;1.13;;;27.60;99.90;;;;;;4996273;28;20219;-85
2022/07/29 09:05:26;;;;;;;3.33;1.20;;;28.00;99.90;;;;;;4996313;28;20204;-83
2022/07/29 09:07:54;;;;;;;2.30;1.08;;;28.50;98.60;;;;;;4996351;28;20212;-83
2022/07/29 09:10:21;;;;;;;4.03;1.10;;;28.70;98.30;;;;;;4996612;28;20246;-83
2022/07/29 09:12:48;;;;;;;1.88;1.10;;;28.20;96.70;;;;;;5013728;28;20188;-81
2022/07/29 09:15:17;;;;;;;3.30;1.00;;;27.40;96.80;;;;;;5012556;28;20195;-81
2022/07/29 09:17:46;;;;;;;5.72;1.20;;;27.20;97.80;;;;;;4994971;28;20554;-81
2022/07/29 09:20:19;;;;;;;2.50;1.10;;;27.20;97.40;;;;;;4948049;28;20581;-80
2022/07/29 09:23:13;;;;;;;4.00;1.27;;;26.60;96.70;;;;;;4953572;28;20212;-82
2022/07/29 09:25:50;;;;;;;3.40;1.40;;;26.20;97.30;;;;;;4977268;28;20259;-79
2022/07/29 09:28:17;;;;;;;2.47;1.20;;;25.90;97.60;;;;;;4993402;28;20662;-80
2022/07/29 09:31:00;;;;;;;3.97;1.40;;;25.80;98.30;;;;;;4976133;28;20223;-80
2022/07/29 09:33:40;;;;;;;2.08;1.02;;;26.10;97.80;;;;;;4976404;28;20219;-80
2022/07/29 09:36:09;;;;;;;1.50;1.00;;;26.80;96.60;;;;;;4993528;28;20193;-79
2022/07/29 09:38:37;;;;;;;1.63;1.10;;;27.50;95.90;;;;;;4975976;28;20227;-82
2022/07/29 09:41:07;;;;;;;2.60;1.08;;;27.80;94.00;;;;;;4976158;28;20709;-82
2022/07/29 09:43:34;;;;;;;2.22;1.00;;;28.10;93.70;;;;;;4975968;28;20295;-80
2022/07/29 09:46:12;;;;;;;2.38;1.20;;;28.20;93.00;;;;;;4976165;28;20558;-81
2022/07/29 09:48:39;;;;;;;2.65;1.08;;;28.60;91.90;;;;;;4975815;28;20282;-75
2022/07/29 09:51:17;;;;;;;3.40;1.13;;;28.50;91.60;;;;;;4966662;28;20248;-81
2022/07/29 09:53:50;;;;;;;2.13;1.00;;;28.90;91.80;;;;;;4972816;28;20206;-81
2022/07/29 09:56:19;;;;;;;2.08;1.00;;;29.00;91.00;;;;;;4972506;28;20204;-82
2022/07/29 09:58:46;;;;;;;4.30;1.10;;;28.90;91.30;;;;;;4972386;28;20602;-80
2022/07/29 10:01:13;;;;;;;2.33;1.17;;;28.50;90.80;;;;;;4962489;28;20208;-85
2022/07/29 10:03:51;;;;;;;1.80;0.93;;;28.30;90.80;;;;;;4959880;28;20197;-80
2022/07/29 10:06:18;;;;;;;3.22;1.00;;;28.50;91.10;;;;;;4975630;28;20295;-80
2022/07/29 10:08:46;;;;;;;3.03;0.95;;;28.40;90.50;;;;;;4993188;28;20228;-78
2022/07/29 10:11:17;;;;;;;2.30;1.10;;;28.20;90.30;;;;;;4975566;28;20288;-77
2022/07/29 10:13:48;;;;;;;2.45;1.10;;;28.20;90.50;;;;;;4959837;28;20416;-77
2022/07/29 10:16:16;;;;;;;1.90;1.00;;;28.30;90.40;;;;;;4975901;28;20239;-77
2022/07/29 10:18:44;;;;;;;1.77;0.90;;;28.10;90.10;;;;;;4976428;28;20229;-66
2022/07/29 10:21:12;;;;;;;3.50;1.13;;;28.00;88.80;;;;;;4976577;28;20221;-74
2022/07/29 10:23:59;;;;;;;2.67;0.90;;;27.80;91.80;;;;;;4963488;28;20232;-84
2022/07/29 10:26:29;;;;;;;1.85;1.02;;;27.50;93.30;;;;;;4977131;28;20300;-78
2022/07/29 10:28:56;;;;;;;1.98;0.90;;;27.30;93.90;;;;;;4976586;28;20221;-78
2022/07/29 10:31:42;;;;;;;3.45;1.10;;;26.90;93.90;;;;;;4977367;28;20229;-77
2022/07/29 10:34:31;;;;;;;1.83;1.00;;;26.80;94.90;;;;;;4940610;28;20207;-77
2022/07/29 10:37:36;;;;;;;2.65;0.90;;;26.70;95.50;;;;;;4956502;28;20224;-79
2022/07/29 10:43:35;;;;;;;3.63;1.10;;;26.90;95.10;;;;;;4895249;29;20204;-75
2022/07/29 10:46:04;;;;;;;5.03;0.90;;;26.70;97.80;;;;;;4864232;29;20797;-76
2022/07/29 10:48:34;;;;;;;3.15;0.90;;;27.10;96.80;;;;;;4894825;29;20220;-88
2022/07/29 10:51:04;;;;;;;1.17;0.90;;;27.80;95.60;;;;;;4879685;29;20240;-79
2022/07/29 10:53:52;;;;;;;1.38;0.80;;;28.20;92.60;;;;;;4895242;29;20235;-79
2022/07/29 10:56:27;;;;;;;5.80;1.10;;;28.20;92.10;;;;;;4879568;29;20311;-76
2022/07/29 10:59:21;;;;;;;2.35;1.10;;;28.30;93.90;;;;;;4879851;29;20299;-80
2022/07/29 11:02:11;;;;;;;2.75;0.90;;;28.60;93.80;;;;;;4895117;29;20654;-78
2022/07/29 11:04:57;;;;;;;3.50;1.17;;;28.90;90.90;;;;;;4895164;29;20204;-81
2022/07/29 11:07:25;;;;;;;1.90;1.00;;;29.20;91.30;;;;;;4895120;29;20232;-80
2022/07/29 11:10:12;;;;;;;1.88;1.00;;;29.10;91.40;;;;;;4879689;29;20291;-81
2022/07/29 11:12:42;;;;;;;2.92;1.20;;;28.60;91.00;;;;;;4896188;29;20252;-79
2022/07/29 11:15:23;;;;;;;5.55;1.50;;;28.50;91.10;;;;;;4898498;29;20212;-76
2022/07/29 11:17:54;;;;;;;2.17;1.20;;;28.40;92.90;;;;;;4956558;29;20200;-76
2022/07/29 11:20:44;;;;;;;2.97;1.00;;;28.30;91.40;;;;;;4940495;29;20715;-82
2022/07/29 11:23:31;;;;;;;5.82;1.10;;;28.20;90.90;;;;;;4940195;29;20632;-81
2022/07/29 11:26:09;;;;;;;1.83;0.90;;;27.90;91.20;;;;;;4940394;29;20552;-77
2022/07/29 11:28:53;;;;;;;2.28;0.85;;;27.90;92.30;;;;;;4940420;29;20233;-77
2022/07/29 11:31:35;;;;;;;2.72;0.88;;;28.00;91.10;;;;;;4940265;29;20652;-78
2022/07/29 11:34:36;;;;;;;2.60;1.00;;;28.00;90.10;;;;;;4940272;29;20313;-75
2022/07/29 11:37:06;;;;;;;2.58;0.90;;;27.70;90.00;;;;;;4913571;29;20302;-72
2022/07/29 11:39:34;;;;;;;2.42;1.20;;;27.80;89.90;;;;;;4901055;29;20214;-74
2022/07/29 11:42:21;;;;;;;2.75;1.05;;;27.80;90.60;;;;;;4916617;29;20211;-74
2022/07/29 11:45:20;;;;;;;2.42;1.13;;;28.00;91.50;;;;;;4900868;29;20235;-73
2022/07/29 11:48:14;;;;;;;1.20;0.88;;;28.00;86.30;;;;;;4916257;29;20382;-74
2022/07/29 11:50:57;;;;;;;3.97;1.00;;;28.20;89.50;;;;;;4900500;29;20207;-74
2022/07/29 11:53:25;;;;;;;4.03;1.10;;;28.80;85.70;;;;;;4900634;29;20250;-74
2022/07/29 11:55:59;;;;;;;2.20;0.80;;;29.30;86.50;;;;;;4900616;29;20215;-73
2022/07/29 11:58:28;;;;;;;2.17;0.77;;;30.20;82.10;;;;;;4900656;29;20326;-73
2022/07/29 12:00:56;;;;;;;0.68;0.60;;;30.50;76.70;;;;;;4900462;29;20242;-73
2022/07/29 12:03:42;;;;;;;1.42;0.70;;;30.80;76.60;;;;;;4900605;29;20582;-75
2022/07/29 12:06:28;;;;;;;1.10;0.80;;;30.80;74.40;;;;;;4916441;29;20207;-74
2022/07/29 12:08:56;;;;;;;2.75;0.80;;;30.50;76.60;;;;;;4916513;29;20216;-77
2022/07/29 12:11:23;;;;;;;2.17;0.73;;;30.50;77.00;;;;;;4916485;29;20277;-76
2022/07/29 12:13:51;;;;;;;1.20;0.85;;;30.30;72.30;;;;;;4957845;28;20197;-75
2022/07/29 12:16:22;;;;;;;1.55;1.00;;;30.00;74.90;;;;;;4969430;28;20198;-74
2022/07/29 12:18:59;;;;;;;4.43;0.95;;;30.10;75.40;;;;;;4958422;28;20201;-74
2022/07/29 12:21:26;;;;;;;2.80;0.63;;;30.40;77.50;;;;;;4975485;28;20450;-78
2022/07/29 12:23:56;;;;;;;1.38;0.88;;;30.80;75.00;;;;;;4958189;28;20244;-74
2022/07/29 12:26:35;;;;;;;1.02;0.70;;;31.20;75.20;;;;;;4973522;28;20292;-73
2022/07/29 12:29:03;;;;;;;1.70;0.75;;;31.70;70.40;;;;;;4994936;28;20602;-76
2022/07/29 12:31:37;;;;;;;1.58;0.65;;;32.40;70.60;;;;;;4994724;28;20203;-72
2022/07/29 12:34:12;;;;;;;1.65;0.70;;;33.00;67.10;;;;;;4977270;28;20205;-73
2022/07/29 12:36:41;;;;;;;2.22;0.80;;;33.10;66.10;;;;;;4995469;28;20547;-77
2022/07/29 12:39:09;;;;;;;2.55;0.80;;;32.80;66.50;;;;;;4977415;28;20303;-74
2022/07/29 12:41:37;;;;;;;1.77;0.80;;;32.70;65.90;;;;;;4977182;28;20211;-75
2022/07/29 12:44:05;;;;;;;0.70;0.50;;;32.60;67.30;;;;;;4975843;28;20207;-74
2022/07/29 12:46:32;;;;;;;2.90;0.90;;;31.50;66.60;;;;;;4977677;28;20201;-74
2022/07/29 12:48:59;;;;;;;2.95;0.80;;;30.90;68.40;;;;;;4994325;28;20566;-75
2022/07/29 12:51:38;;;;;;;1.75;0.98;;;30.60;69.70;;;;;;4977007;28;20713;-72
2022/07/29 12:54:12;;;;;;;1.88;0.73;;;30.60;69.40;;;;;;4986884;28;20618;-75
2022/07/29 12:56:44;;;;;;;1.40;0.70;;;30.70;72.20;;;;;;4957752;28;20223;-74
2022/07/29 12:59:14;;;;;;;3.58;1.10;;;30.70;68.10;;;;;;4957643;28;20714;-74
2022/07/29 13:01:41;;;;;;;1.80;0.80;;;30.80;69.30;;;;;;4957493;28;20194;-73
2022/07/29 13:04:08;;;;;;;3.28;0.80;;;31.20;69.50;;;;;;4957805;28;20205;-72
2022/07/29 13:06:43;;;;;;;2.42;0.85;;;31.50;67.20;;;;;;4974731;28;20211;-74
2022/07/29 13:09:41;;;;;;;3.13;0.90;;;31.90;66.40;;;;;;4957380;28;20205;-73
2022/07/29 13:12:13;;;;;;;2.47;0.80;;;32.60;65.00;;;;;;4957316;28;20201;-74
2022/07/29 13:14:44;;;;;;;2.25;0.82;;;32.80;62.30;;;;;;4957434;28;20626;-77